sensor_id;sensor_type;location;lat;lon;timestamp;P1;durP1;ratioP1;P2;durP2;ratioP2
61702;SDS011;47622;47.726;3.298;2023-04-24T00:00:12;7.00;;;3.25;;
61702;SDS011;47622;47.726;3.298;2023-04-24T00:02:39;7.70;;;3.20;;
61702;SDS011;47622;47.726;3.298;2023-04-24T00:05:05;4.00;;;2.70;;
61702;SDS011;47622;47.726;3.298;2023-04-24T00:07:32;7.97;;;3.90;;
61702;SDS011;47622;47.726;3.298;2023-04-24T00:09:58;9.45;;;2.80;;
61702;SDS011;47622;47.726;3.298;2023-04-24T00:12:25;8.10;;;2.92;;
61702;SDS011;47622;47.726;3.298;2023-04-24T00:14:52;6.80;;;2.63;;
61702;SDS011;47622;47.726;3.298;2023-04-24T00:17:18;5.07;;;2.78;;
61702;SDS011;47622;47.726;3.298;2023-04-24T00:19:47;6.53;;;3.00;;
61702;SDS011;47622;47.726;3.298;2023-04-24T00:22:13;7.80;;;2.33;;
61702;SDS011;47622;47.726;3.298;2023-04-24T00:24:39;4.25;;;2.30;;
61702;SDS011;47622;47.726;3.298;2023-04-24T00:27:05;2.58;;;2.38;;
61702;SDS011;47622;47.726;3.298;2023-04-24T00:29:31;5.90;;;2.35;;
61702;SDS011;47622;47.726;3.298;2023-04-24T00:31:57;4.00;;;2.58;;
61702;SDS011;47622;47.726;3.298;2023-04-24T00:34:23;5.47;;;2.50;;
61702;SDS011;47622;47.726;3.298;2023-04-24T00:36:48;7.00;;;3.05;;
61702;SDS011;47622;47.726;3.298;2023-04-24T00:39:20;5.05;;;2.50;;
61702;SDS011;47622;47.726;3.298;2023-04-24T00:41:46;5.80;;;3.05;;
61702;SDS011;47622;47.726;3.298;2023-04-24T00:44:13;4.95;;;2.85;;
61702;SDS011;47622;47.726;3.298;2023-04-24T00:46:39;4.03;;;2.45;;
61702;SDS011;47622;47.726;3.298;2023-04-24T00:49:05;4.50;;;2.80;;
61702;SDS011;47622;47.726;3.298;2023-04-24T00:51:31;4.85;;;2.72;;
61702;SDS011;47622;47.726;3.298;2023-04-24T00:53:58;3.92;;;2.38;;
61702;SDS011;47622;47.726;3.298;2023-04-24T00:56:24;4.13;;;2.40;;
61702;SDS011;47622;47.726;3.298;2023-04-24T00:58:50;3.30;;;2.42;;
61702;SDS011;47622;47.726;3.298;2023-04-24T01:01:16;4.38;;;2.65;;
61702;SDS011;47622;47.726;3.298;2023-04-24T01:03:45;5.95;;;3.03;;
61702;SDS011;47622;47.726;3.298;2023-04-24T01:06:11;4.93;;;2.50;;
61702;SDS011;47622;47.726;3.298;2023-04-24T01:08:39;5.28;;;2.70;;
61702;SDS011;47622;47.726;3.298;2023-04-24T01:11:05;7.07;;;2.53;;
61702;SDS011;47622;47.726;3.298;2023-04-24T01:13:31;3.85;;;2.58;;
61702;SDS011;47622;47.726;3.298;2023-04-24T01:15:57;4.78;;;2.58;;
61702;SDS011;47622;47.726;3.298;2023-04-24T01:18:23;5.50;;;2.75;;
61702;SDS011;47622;47.726;3.298;2023-04-24T01:20:50;6.00;;;2.70;;
61702;SDS011;47622;47.726;3.298;2023-04-24T01:23:18;3.35;;;2.65;;
61702;SDS011;47622;47.726;3.298;2023-04-24T01:25:44;5.28;;;2.47;;
61702;SDS011;47622;47.726;3.298;2023-04-24T01:28:10;5.63;;;2.70;;
61702;SDS011;47622;47.726;3.298;2023-04-24T01:30:39;3.90;;;2.83;;
61702;SDS011;47622;47.726;3.298;2023-04-24T01:33:04;6.97;;;3.00;;
61702;SDS011;47622;47.726;3.298;2023-04-24T01:35:30;3.60;;;2.70;;
61702;SDS011;47622;47.726;3.298;2023-04-24T01:37:56;3.72;;;2.60;;
61702;SDS011;47622;47.726;3.298;2023-04-24T01:40:23;4.10;;;2.85;;
61702;SDS011;47622;47.726;3.298;2023-04-24T01:42:49;3.83;;;2.42;;
61702;SDS011;47622;47.726;3.298;2023-04-24T01:45:15;3.28;;;2.47;;
61702;SDS011;47622;47.726;3.298;2023-04-24T01:47:41;5.43;;;2.70;;
61702;SDS011;47622;47.726;3.298;2023-04-24T01:50:07;3.40;;;2.50;;
61702;SDS011;47622;47.726;3.298;2023-04-24T01:52:33;5.07;;;2.95;;
61702;SDS011;47622;47.726;3.298;2023-04-24T01:55:00;3.80;;;2.72;;
61702;SDS011;47622;47.726;3.298;2023-04-24T01:57:26;6.00;;;2.90;;
61702;SDS011;47622;47.726;3.298;2023-04-24T01:59:52;5.82;;;2.65;;
61702;SDS011;47622;47.726;3.298;2023-04-24T02:02:17;4.72;;;2.90;;
61702;SDS011;47622;47.726;3.298;2023-04-24T02:04:46;3.90;;;2.80;;
61702;SDS011;47622;47.726;3.298;2023-04-24T02:07:11;7.65;;;2.80;;
61702;SDS011;47622;47.726;3.298;2023-04-24T02:09:38;5.75;;;2.78;;
61702;SDS011;47622;47.726;3.298;2023-04-24T02:12:04;7.47;;;2.95;;
61702;SDS011;47622;47.726;3.298;2023-04-24T02:14:30;4.43;;;2.83;;
61702;SDS011;47622;47.726;3.298;2023-04-24T02:16:55;3.38;;;2.80;;
61702;SDS011;47622;47.726;3.298;2023-04-24T02:19:21;3.55;;;2.67;;
61702;SDS011;47622;47.726;3.298;2023-04-24T02:21:47;5.65;;;3.08;;
61702;SDS011;47622;47.726;3.298;2023-04-24T02:24:12;4.38;;;2.85;;
61702;SDS011;47622;47.726;3.298;2023-04-24T02:26:40;8.45;;;2.88;;
61702;SDS011;47622;47.726;3.298;2023-04-24T02:29:07;10.43;;;3.22;;
61702;SDS011;47622;47.726;3.298;2023-04-24T02:31:33;6.75;;;3.53;;
61702;SDS011;47622;47.726;3.298;2023-04-24T02:33:59;5.28;;;3.20;;
61702;SDS011;47622;47.726;3.298;2023-04-24T02:36:24;5.35;;;2.97;;
61702;SDS011;47622;47.726;3.298;2023-04-24T02:38:50;4.93;;;3.10;;
61702;SDS011;47622;47.726;3.298;2023-04-24T02:41:16;10.63;;;3.17;;
61702;SDS011;47622;47.726;3.298;2023-04-24T02:43:41;8.38;;;3.10;;
61702;SDS011;47622;47.726;3.298;2023-04-24T02:46:07;6.32;;;3.30;;
61702;SDS011;47622;47.726;3.298;2023-04-24T02:48:32;4.60;;;3.10;;
61702;SDS011;47622;47.726;3.298;2023-04-24T02:50:58;5.78;;;3.05;;
61702;SDS011;47622;47.726;3.298;2023-04-24T02:53:24;5.45;;;2.78;;
61702;SDS011;47622;47.726;3.298;2023-04-24T02:55:50;7.07;;;2.95;;
61702;SDS011;47622;47.726;3.298;2023-04-24T02:58:15;3.70;;;2.92;;
61702;SDS011;47622;47.726;3.298;2023-04-24T03:00:42;8.63;;;3.53;;
61702;SDS011;47622;47.726;3.298;2023-04-24T03:03:08;5.25;;;2.90;;
61702;SDS011;47622;47.726;3.298;2023-04-24T03:05:34;5.05;;;3.10;;
61702;SDS011;47622;47.726;3.298;2023-04-24T03:08:00;6.75;;;3.20;;
61702;SDS011;47622;47.726;3.298;2023-04-24T03:10:25;10.57;;;3.40;;
61702;SDS011;47622;47.726;3.298;2023-04-24T03:12:52;7.63;;;3.33;;
61702;SDS011;47622;47.726;3.298;2023-04-24T03:15:19;4.03;;;2.85;;
61702;SDS011;47622;47.726;3.298;2023-04-24T03:17:45;9.35;;;3.42;;
61702;SDS011;47622;47.726;3.298;2023-04-24T03:20:11;9.50;;;3.25;;
61702;SDS011;47622;47.726;3.298;2023-04-24T03:22:37;4.70;;;3.00;;
61702;SDS011;47622;47.726;3.298;2023-04-24T03:25:02;4.43;;;3.40;;
61702;SDS011;47622;47.726;3.298;2023-04-24T03:27:28;6.82;;;3.58;;
61702;SDS011;47622;47.726;3.298;2023-04-24T03:29:55;9.98;;;3.65;;
61702;SDS011;47622;47.726;3.298;2023-04-24T03:32:21;6.70;;;3.10;;
61702;SDS011;47622;47.726;3.298;2023-04-24T03:34:48;5.35;;;3.15;;
61702;SDS011;47622;47.726;3.298;2023-04-24T03:37:15;7.25;;;3.40;;
61702;SDS011;47622;47.726;3.298;2023-04-24T03:39:41;5.90;;;3.10;;
61702;SDS011;47622;47.726;3.298;2023-04-24T03:42:07;6.45;;;3.25;;
61702;SDS011;47622;47.726;3.298;2023-04-24T03:44:33;9.65;;;3.58;;
61702;SDS011;47622;47.726;3.298;2023-04-24T03:47:00;4.82;;;3.13;;
61702;SDS011;47622;47.726;3.298;2023-04-24T03:49:25;5.97;;;3.50;;
61702;SDS011;47622;47.726;3.298;2023-04-24T03:51:51;7.53;;;3.28;;
61702;SDS011;47622;47.726;3.298;2023-04-24T03:54:18;6.63;;;3.53;;
61702;SDS011;47622;47.726;3.298;2023-04-24T03:56:44;3.83;;;2.78;;
61702;SDS011;47622;47.726;3.298;2023-04-24T03:59:10;5.15;;;3.08;;
61702;SDS011;47622;47.726;3.298;2023-04-24T04:01:36;7.13;;;3.13;;
61702;SDS011;47622;47.726;3.298;2023-04-24T04:04:05;6.95;;;3.10;;
61702;SDS011;47622;47.726;3.298;2023-04-24T04:06:31;6.32;;;3.05;;
61702;SDS011;47622;47.726;3.298;2023-04-24T04:08:57;7.60;;;2.97;;
61702;SDS011;47622;47.726;3.298;2023-04-24T04:11:23;6.07;;;2.90;;
61702;SDS011;47622;47.726;3.298;2023-04-24T04:13:51;6.55;;;3.10;;
61702;SDS011;47622;47.726;3.298;2023-04-24T04:16:17;7.20;;;2.88;;
61702;SDS011;47622;47.726;3.298;2023-04-24T04:18:43;5.05;;;3.10;;
61702;SDS011;47622;47.726;3.298;2023-04-24T04:21:10;6.40;;;3.00;;
61702;SDS011;47622;47.726;3.298;2023-04-24T04:23:35;3.85;;;2.85;;
61702;SDS011;47622;47.726;3.298;2023-04-24T04:26:01;9.43;;;2.90;;
61702;SDS011;47622;47.726;3.298;2023-04-24T04:28:28;5.82;;;3.00;;
61702;SDS011;47622;47.726;3.298;2023-04-24T04:30:55;5.13;;;2.95;;
61702;SDS011;47622;47.726;3.298;2023-04-24T04:33:23;4.97;;;3.20;;
61702;SDS011;47622;47.726;3.298;2023-04-24T04:35:49;4.18;;;2.75;;
61702;SDS011;47622;47.726;3.298;2023-04-24T04:38:17;5.25;;;2.85;;
61702;SDS011;47622;47.726;3.298;2023-04-24T04:40:44;7.18;;;3.05;;
61702;SDS011;47622;47.726;3.298;2023-04-24T04:43:11;5.28;;;2.70;;
61702;SDS011;47622;47.726;3.298;2023-04-24T04:45:38;7.53;;;2.90;;
61702;SDS011;47622;47.726;3.298;2023-04-24T04:48:05;4.60;;;3.05;;
61702;SDS011;47622;47.726;3.298;2023-04-24T04:50:34;5.22;;;2.92;;
61702;SDS011;47622;47.726;3.298;2023-04-24T04:53:00;7.03;;;3.13;;
61702;SDS011;47622;47.726;3.298;2023-04-24T04:55:25;6.57;;;3.13;;
61702;SDS011;47622;47.726;3.298;2023-04-24T04:57:51;6.40;;;3.33;;
61702;SDS011;47622;47.726;3.298;2023-04-24T05:00:17;6.43;;;3.28;;
61702;SDS011;47622;47.726;3.298;2023-04-24T05:02:43;7.57;;;3.20;;
61702;SDS011;47622;47.726;3.298;2023-04-24T05:05:09;6.68;;;3.97;;
61702;SDS011;47622;47.726;3.298;2023-04-24T05:07:35;10.55;;;4.43;;
61702;SDS011;47622;47.726;3.298;2023-04-24T05:10:00;9.18;;;4.45;;
61702;SDS011;47622;47.726;3.298;2023-04-24T05:12:26;6.75;;;4.38;;
61702;SDS011;47622;47.726;3.298;2023-04-24T05:14:52;14.57;;;4.70;;
61702;SDS011;47622;47.726;3.298;2023-04-24T05:17:18;8.75;;;4.70;;
61702;SDS011;47622;47.726;3.298;2023-04-24T05:19:45;9.18;;;5.07;;
61702;SDS011;47622;47.726;3.298;2023-04-24T05:22:11;10.27;;;5.15;;
61702;SDS011;47622;47.726;3.298;2023-04-24T05:24:37;9.00;;;5.15;;
61702;SDS011;47622;47.726;3.298;2023-04-24T05:27:03;7.28;;;4.72;;
61702;SDS011;47622;47.726;3.298;2023-04-24T05:29:31;8.63;;;4.65;;
61702;SDS011;47622;47.726;3.298;2023-04-24T05:31:58;9.57;;;5.00;;
61702;SDS011;47622;47.726;3.298;2023-04-24T05:34:24;7.55;;;5.95;;
61702;SDS011;47622;47.726;3.298;2023-04-24T05:36:49;10.23;;;5.53;;
61702;SDS011;47622;47.726;3.298;2023-04-24T05:39:16;9.93;;;5.03;;
61702;SDS011;47622;47.726;3.298;2023-04-24T05:41:42;11.35;;;5.70;;
61702;SDS011;47622;47.726;3.298;2023-04-24T05:44:08;11.55;;;5.43;;
61702;SDS011;47622;47.726;3.298;2023-04-24T05:46:33;13.43;;;5.30;;
61702;SDS011;47622;47.726;3.298;2023-04-24T05:49:00;9.48;;;5.40;;
61702;SDS011;47622;47.726;3.298;2023-04-24T05:51:27;8.68;;;5.63;;
61702;SDS011;47622;47.726;3.298;2023-04-24T05:53:53;13.48;;;6.05;;
61702;SDS011;47622;47.726;3.298;2023-04-24T05:56:19;11.38;;;6.72;;
61702;SDS011;47622;47.726;3.298;2023-04-24T05:58:46;10.27;;;5.40;;
61702;SDS011;47622;47.726;3.298;2023-04-24T06:01:12;10.43;;;4.97;;
61702;SDS011;47622;47.726;3.298;2023-04-24T06:03:40;9.68;;;5.50;;
61702;SDS011;47622;47.726;3.298;2023-04-24T06:06:06;8.00;;;5.13;;
61702;SDS011;47622;47.726;3.298;2023-04-24T06:08:32;14.60;;;5.45;;
61702;SDS011;47622;47.726;3.298;2023-04-24T06:10:58;9.77;;;5.05;;
61702;SDS011;47622;47.726;3.298;2023-04-24T06:13:24;7.00;;;5.07;;
61702;SDS011;47622;47.726;3.298;2023-04-24T06:15:50;8.63;;;4.97;;
61702;SDS011;47622;47.726;3.298;2023-04-24T06:18:16;10.70;;;4.95;;
61702;SDS011;47622;47.726;3.298;2023-04-24T06:20:42;11.32;;;5.00;;
61702;SDS011;47622;47.726;3.298;2023-04-24T06:23:08;7.43;;;5.00;;
61702;SDS011;47622;47.726;3.298;2023-04-24T06:25:34;8.90;;;4.80;;
61702;SDS011;47622;47.726;3.298;2023-04-24T06:27:59;10.65;;;4.80;;
61702;SDS011;47622;47.726;3.298;2023-04-24T06:30:26;10.23;;;4.65;;
61702;SDS011;47622;47.726;3.298;2023-04-24T06:32:53;8.05;;;4.15;;
61702;SDS011;47622;47.726;3.298;2023-04-24T06:35:18;8.10;;;4.65;;
61702;SDS011;47622;47.726;3.298;2023-04-24T06:37:44;8.63;;;4.15;;
61702;SDS011;47622;47.726;3.298;2023-04-24T06:40:10;8.00;;;4.10;;
61702;SDS011;47622;47.726;3.298;2023-04-24T06:42:36;7.00;;;4.38;;
61702;SDS011;47622;47.726;3.298;2023-04-24T06:45:02;8.45;;;3.80;;
61702;SDS011;47622;47.726;3.298;2023-04-24T06:47:29;7.40;;;3.90;;
61702;SDS011;47622;47.726;3.298;2023-04-24T06:49:55;8.40;;;4.55;;
61702;SDS011;47622;47.726;3.298;2023-04-24T06:52:20;10.50;;;4.50;;
61702;SDS011;47622;47.726;3.298;2023-04-24T06:54:46;8.45;;;3.90;;
61702;SDS011;47622;47.726;3.298;2023-04-24T06:57:12;7.95;;;3.70;;
61702;SDS011;47622;47.726;3.298;2023-04-24T06:59:38;8.23;;;4.28;;
61702;SDS011;47622;47.726;3.298;2023-04-24T07:02:04;6.65;;;4.10;;
61702;SDS011;47622;47.726;3.298;2023-04-24T07:04:30;7.00;;;4.13;;
61702;SDS011;47622;47.726;3.298;2023-04-24T07:06:56;7.93;;;3.78;;
61702;SDS011;47622;47.726;3.298;2023-04-24T07:09:23;7.57;;;3.78;;
61702;SDS011;47622;47.726;3.298;2023-04-24T07:11:51;10.13;;;4.45;;
61702;SDS011;47622;47.726;3.298;2023-04-24T07:14:17;10.05;;;4.13;;
61702;SDS011;47622;47.726;3.298;2023-04-24T07:16:44;8.23;;;4.65;;
61702;SDS011;47622;47.726;3.298;2023-04-24T07:19:10;10.23;;;4.28;;
61702;SDS011;47622;47.726;3.298;2023-04-24T07:21:36;7.35;;;4.10;;
61702;SDS011;47622;47.726;3.298;2023-04-24T07:24:01;5.78;;;3.85;;
61702;SDS011;47622;47.726;3.298;2023-04-24T07:26:28;6.25;;;3.70;;
61702;SDS011;47622;47.726;3.298;2023-04-24T07:28:54;7.97;;;3.97;;
61702;SDS011;47622;47.726;3.298;2023-04-24T07:31:20;11.13;;;3.88;;
61702;SDS011;47622;47.726;3.298;2023-04-24T07:33:46;8.13;;;3.67;;
61702;SDS011;47622;47.726;3.298;2023-04-24T07:36:12;7.13;;;3.45;;
61702;SDS011;47622;47.726;3.298;2023-04-24T07:38:42;4.75;;;3.70;;
61702;SDS011;47622;47.726;3.298;2023-04-24T07:41:08;7.35;;;3.63;;
61702;SDS011;47622;47.726;3.298;2023-04-24T07:43:35;8.30;;;3.47;;
61702;SDS011;47622;47.726;3.298;2023-04-24T07:46:01;6.30;;;3.78;;
61702;SDS011;47622;47.726;3.298;2023-04-24T07:48:27;7.32;;;3.97;;
61702;SDS011;47622;47.726;3.298;2023-04-24T07:50:53;7.00;;;3.60;;
61702;SDS011;47622;47.726;3.298;2023-04-24T07:53:19;7.90;;;3.50;;
61702;SDS011;47622;47.726;3.298;2023-04-24T07:55:45;10.75;;;3.58;;
61702;SDS011;47622;47.726;3.298;2023-04-24T07:58:10;7.60;;;3.38;;
61702;SDS011;47622;47.726;3.298;2023-04-24T08:00:36;5.13;;;3.83;;
61702;SDS011;47622;47.726;3.298;2023-04-24T08:03:02;5.47;;;3.05;;
61702;SDS011;47622;47.726;3.298;2023-04-24T08:05:27;8.00;;;4.03;;
61702;SDS011;47622;47.726;3.298;2023-04-24T08:07:53;8.52;;;3.80;;
61702;SDS011;47622;47.726;3.298;2023-04-24T08:10:20;10.68;;;3.97;;
61702;SDS011;47622;47.726;3.298;2023-04-24T08:12:47;9.65;;;4.00;;
61702;SDS011;47622;47.726;3.298;2023-04-24T08:15:12;10.18;;;3.83;;
61702;SDS011;47622;47.726;3.298;2023-04-24T08:17:38;7.05;;;3.50;;
61702;SDS011;47622;47.726;3.298;2023-04-24T08:20:04;7.65;;;4.18;;
61702;SDS011;47622;47.726;3.298;2023-04-24T08:22:30;7.40;;;3.40;;
61702;SDS011;47622;47.726;3.298;2023-04-24T08:24:56;8.20;;;3.65;;
61702;SDS011;47622;47.726;3.298;2023-04-24T08:27:22;9.10;;;3.95;;
61702;SDS011;47622;47.726;3.298;2023-04-24T08:29:49;6.07;;;3.65;;
61702;SDS011;47622;47.726;3.298;2023-04-24T08:32:14;6.28;;;3.80;;
61702;SDS011;47622;47.726;3.298;2023-04-24T08:34:40;6.13;;;3.30;;
61702;SDS011;47622;47.726;3.298;2023-04-24T08:37:06;12.35;;;4.10;;
61702;SDS011;47622;47.726;3.298;2023-04-24T08:39:33;6.93;;;3.45;;
61702;SDS011;47622;47.726;3.298;2023-04-24T08:41:58;6.97;;;3.28;;
61702;SDS011;47622;47.726;3.298;2023-04-24T08:44:31;4.18;;;2.92;;
61702;SDS011;47622;47.726;3.298;2023-04-24T08:46:57;7.60;;;2.80;;
61702;SDS011;47622;47.726;3.298;2023-04-24T08:49:24;7.47;;;3.22;;
61702;SDS011;47622;47.726;3.298;2023-04-24T08:51:50;6.95;;;3.22;;
61702;SDS011;47622;47.726;3.298;2023-04-24T08:54:18;7.20;;;3.00;;
61702;SDS011;47622;47.726;3.298;2023-04-24T08:56:44;5.22;;;3.42;;
61702;SDS011;47622;47.726;3.298;2023-04-24T08:59:10;6.32;;;3.72;;
61702;SDS011;47622;47.726;3.298;2023-04-24T09:01:37;9.05;;;3.50;;
61702;SDS011;47622;47.726;3.298;2023-04-24T09:04:05;7.85;;;3.42;;
61702;SDS011;47622;47.726;3.298;2023-04-24T09:06:37;6.63;;;3.17;;
61702;SDS011;47622;47.726;3.298;2023-04-24T09:09:06;5.10;;;3.17;;
61702;SDS011;47622;47.726;3.298;2023-04-24T09:11:33;5.63;;;3.03;;
61702;SDS011;47622;47.726;3.298;2023-04-24T09:13:59;7.05;;;3.00;;
61702;SDS011;47622;47.726;3.298;2023-04-24T09:16:26;6.63;;;3.00;;
61702;SDS011;47622;47.726;3.298;2023-04-24T09:18:52;4.60;;;2.58;;
61702;SDS011;47622;47.726;3.298;2023-04-24T09:21:19;9.57;;;3.22;;
61702;SDS011;47622;47.726;3.298;2023-04-24T09:23:46;5.13;;;2.90;;
61702;SDS011;47622;47.726;3.298;2023-04-24T09:26:11;7.22;;;2.95;;
61702;SDS011;47622;47.726;3.298;2023-04-24T09:28:39;4.43;;;2.55;;
61702;SDS011;47622;47.726;3.298;2023-04-24T09:31:13;6.70;;;3.00;;
61702;SDS011;47622;47.726;3.298;2023-04-24T09:33:43;6.90;;;2.75;;
61702;SDS011;47622;47.726;3.298;2023-04-24T09:36:41;6.90;;;2.70;;
61702;SDS011;47622;47.726;3.298;2023-04-24T09:39:09;4.75;;;2.45;;
61702;SDS011;47622;47.726;3.298;2023-04-24T09:41:46;7.03;;;2.78;;
61702;SDS011;47622;47.726;3.298;2023-04-24T09:44:21;2.70;;;2.20;;
61702;SDS011;47622;47.726;3.298;2023-04-24T09:46:51;6.07;;;2.75;;
61702;SDS011;47622;47.726;3.298;2023-04-24T09:49:22;4.38;;;2.35;;
61702;SDS011;47622;47.726;3.298;2023-04-24T09:51:49;7.78;;;2.60;;
61702;SDS011;47622;47.726;3.298;2023-04-24T09:54:16;5.45;;;2.38;;
61702;SDS011;47622;47.726;3.298;2023-04-24T09:56:44;4.63;;;2.70;;
61702;SDS011;47622;47.726;3.298;2023-04-24T09:59:11;5.38;;;2.65;;
61702;SDS011;47622;47.726;3.298;2023-04-24T10:01:38;4.28;;;2.88;;
61702;SDS011;47622;47.726;3.298;2023-04-24T10:04:07;6.55;;;2.10;;
61702;SDS011;47622;47.726;3.298;2023-04-24T10:06:41;5.55;;;2.13;;
61702;SDS011;47622;47.726;3.298;2023-04-24T10:09:08;3.17;;;2.08;;
61702;SDS011;47622;47.726;3.298;2023-04-24T10:11:36;5.15;;;2.63;;
61702;SDS011;47622;47.726;3.298;2023-04-24T10:14:02;6.57;;;2.13;;
61702;SDS011;47622;47.726;3.298;2023-04-24T10:16:28;4.32;;;2.20;;
61702;SDS011;47622;47.726;3.298;2023-04-24T10:18:56;4.47;;;2.50;;
61702;SDS011;47622;47.726;3.298;2023-04-24T10:21:24;6.88;;;2.55;;
61702;SDS011;47622;47.726;3.298;2023-04-24T10:23:51;4.85;;;2.40;;
61702;SDS011;47622;47.726;3.298;2023-04-24T10:26:18;6.80;;;2.45;;
61702;SDS011;47622;47.726;3.298;2023-04-24T10:28:45;5.78;;;2.33;;
61702;SDS011;47622;47.726;3.298;2023-04-24T10:31:11;6.82;;;2.65;;
61702;SDS011;47622;47.726;3.298;2023-04-24T10:33:38;8.70;;;2.50;;
61702;SDS011;47622;47.726;3.298;2023-04-24T10:36:06;7.22;;;2.60;;
61702;SDS011;47622;47.726;3.298;2023-04-24T10:38:34;3.22;;;2.13;;
61702;SDS011;47622;47.726;3.298;2023-04-24T10:46:04;5.40;;;2.50;;
61702;SDS011;47622;47.726;3.298;2023-04-24T10:48:31;5.63;;;2.47;;
61702;SDS011;47622;47.726;3.298;2023-04-24T10:50:57;2.92;;;2.10;;
61702;SDS011;47622;47.726;3.298;2023-04-24T10:53:24;6.28;;;2.20;;
61702;SDS011;47622;47.726;3.298;2023-04-24T10:55:59;4.75;;;2.10;;
61702;SDS011;47622;47.726;3.298;2023-04-24T11:01:29;7.45;;;2.60;;
61702;SDS011;47622;47.726;3.298;2023-04-24T11:04:00;5.38;;;2.17;;
61702;SDS011;47622;47.726;3.298;2023-04-24T11:06:35;2.95;;;1.67;;
61702;SDS011;47622;47.726;3.298;2023-04-24T11:09:05;6.97;;;2.20;;
61702;SDS011;47622;47.726;3.298;2023-04-24T11:11:33;5.05;;;1.85;;
61702;SDS011;47622;47.726;3.298;2023-04-24T11:14:03;4.28;;;2.03;;
61702;SDS011;47622;47.726;3.298;2023-04-24T11:16:44;3.65;;;1.95;;
61702;SDS011;47622;47.726;3.298;2023-04-24T11:24:29;4.32;;;2.05;;
61702;SDS011;47622;47.726;3.298;2023-04-24T11:32:26;3.17;;;2.13;;
61702;SDS011;47622;47.726;3.298;2023-04-24T11:34:59;3.72;;;2.10;;
61702;SDS011;47622;47.726;3.298;2023-04-24T11:40:05;4.70;;;2.10;;
61702;SDS011;47622;47.726;3.298;2023-04-24T11:42:36;6.55;;;2.15;;
61702;SDS011;47622;47.726;3.298;2023-04-24T11:45:09;5.32;;;2.08;;
61702;SDS011;47622;47.726;3.298;2023-04-24T11:47:40;5.43;;;2.20;;
61702;SDS011;47622;47.726;3.298;2023-04-24T11:50:13;8.10;;;2.22;;
61702;SDS011;47622;47.726;3.298;2023-04-24T11:52:46;7.43;;;2.13;;
61702;SDS011;47622;47.726;3.298;2023-04-24T11:57:46;5.65;;;1.80;;
61702;SDS011;47622;47.726;3.298;2023-04-24T12:00:18;5.00;;;1.75;;
61702;SDS011;47622;47.726;3.298;2023-04-24T12:02:48;3.65;;;2.20;;
61702;SDS011;47622;47.726;3.298;2023-04-24T12:05:22;4.22;;;2.08;;
61702;SDS011;47622;47.726;3.298;2023-04-24T12:07:49;5.60;;;2.10;;
61702;SDS011;47622;47.726;3.298;2023-04-24T12:10:23;3.13;;;1.63;;
61702;SDS011;47622;47.726;3.298;2023-04-24T12:12:50;4.40;;;2.00;;
61702;SDS011;47622;47.726;3.298;2023-04-24T12:15:18;4.38;;;1.90;;
61702;SDS011;47622;47.726;3.298;2023-04-24T12:17:46;4.50;;;1.70;;
61702;SDS011;47622;47.726;3.298;2023-04-24T12:20:13;5.40;;;1.73;;
61702;SDS011;47622;47.726;3.298;2023-04-24T12:25:20;3.15;;;1.88;;
61702;SDS011;47622;47.726;3.298;2023-04-24T12:27:55;4.70;;;1.75;;
61702;SDS011;47622;47.726;3.298;2023-04-24T12:33:16;1.50;;;1.30;;
61702;SDS011;47622;47.726;3.298;2023-04-24T12:35:47;2.58;;;1.77;;
61702;SDS011;47622;47.726;3.298;2023-04-24T12:38:15;3.17;;;1.33;;
61702;SDS011;47622;47.726;3.298;2023-04-24T12:40:46;1.88;;;1.45;;
61702;SDS011;47622;47.726;3.298;2023-04-24T12:43:26;2.72;;;1.58;;
61702;SDS011;47622;47.726;3.298;2023-04-24T12:45:51;3.97;;;1.60;;
61702;SDS011;47622;47.726;3.298;2023-04-24T12:48:17;4.13;;;1.40;;
61702;SDS011;47622;47.726;3.298;2023-04-24T12:50:46;2.90;;;1.70;;
61702;SDS011;47622;47.726;3.298;2023-04-24T12:53:13;1.52;;;1.30;;
61702;SDS011;47622;47.726;3.298;2023-04-24T12:55:40;3.30;;;1.33;;
61702;SDS011;47622;47.726;3.298;2023-04-24T12:58:06;2.28;;;1.60;;
61702;SDS011;47622;47.726;3.298;2023-04-24T13:00:33;1.65;;;1.17;;
61702;SDS011;47622;47.726;3.298;2023-04-24T13:02:59;3.30;;;1.75;;
61702;SDS011;47622;47.726;3.298;2023-04-24T13:05:26;2.95;;;1.27;;
61702;SDS011;47622;47.726;3.298;2023-04-24T13:08:01;4.10;;;1.20;;
61702;SDS011;47622;47.726;3.298;2023-04-24T13:10:27;2.25;;;1.50;;
61702;SDS011;47622;47.726;3.298;2023-04-24T13:12:53;4.47;;;1.48;;
61702;SDS011;47622;47.726;3.298;2023-04-24T13:15:18;3.05;;;1.55;;
61702;SDS011;47622;47.726;3.298;2023-04-24T13:17:45;3.40;;;1.50;;
61702;SDS011;47622;47.726;3.298;2023-04-24T13:20:10;1.65;;;1.35;;
61702;SDS011;47622;47.726;3.298;2023-04-24T13:22:38;2.75;;;1.60;;
61702;SDS011;47622;47.726;3.298;2023-04-24T13:25:05;2.22;;;1.40;;
61702;SDS011;47622;47.726;3.298;2023-04-24T13:27:32;3.03;;;1.60;;
61702;SDS011;47622;47.726;3.298;2023-04-24T13:29:58;3.75;;;1.52;;
61702;SDS011;47622;47.726;3.298;2023-04-24T13:32:24;5.13;;;1.70;;
61702;SDS011;47622;47.726;3.298;2023-04-24T13:34:50;4.65;;;1.63;;
61702;SDS011;47622;47.726;3.298;2023-04-24T13:37:16;6.85;;;2.33;;
61702;SDS011;47622;47.726;3.298;2023-04-24T13:39:45;1.98;;;1.63;;
61702;SDS011;47622;47.726;3.298;2023-04-24T13:42:11;5.60;;;1.50;;
61702;SDS011;47622;47.726;3.298;2023-04-24T13:44:37;1.90;;;1.58;;
61702;SDS011;47622;47.726;3.298;2023-04-24T13:47:03;3.97;;;1.80;;
61702;SDS011;47622;47.726;3.298;2023-04-24T13:49:29;2.53;;;1.80;;
61702;SDS011;47622;47.726;3.298;2023-04-24T13:51:55;4.78;;;1.80;;
61702;SDS011;47622;47.726;3.298;2023-04-24T13:54:21;4.55;;;1.75;;
61702;SDS011;47622;47.726;3.298;2023-04-24T13:56:49;3.63;;;1.45;;
61702;SDS011;47622;47.726;3.298;2023-04-24T13:59:15;2.63;;;1.50;;
61702;SDS011;47622;47.726;3.298;2023-04-24T14:01:41;6.45;;;1.80;;
61702;SDS011;47622;47.726;3.298;2023-04-24T14:04:07;4.20;;;2.65;;
61702;SDS011;47622;47.726;3.298;2023-04-24T14:06:32;4.35;;;1.98;;
61702;SDS011;47622;47.726;3.298;2023-04-24T14:08:58;4.50;;;1.85;;
61702;SDS011;47622;47.726;3.298;2023-04-24T14:11:24;2.65;;;1.95;;
61702;SDS011;47622;47.726;3.298;2023-04-24T14:13:53;4.22;;;2.30;;
61702;SDS011;47622;47.726;3.298;2023-04-24T14:16:21;5.40;;;2.40;;
61702;SDS011;47622;47.726;3.298;2023-04-24T14:18:47;4.95;;;3.03;;
61702;SDS011;47622;47.726;3.298;2023-04-24T14:21:12;7.28;;;2.80;;
61702;SDS011;47622;47.726;3.298;2023-04-24T14:23:38;6.40;;;3.13;;
61702;SDS011;47622;47.726;3.298;2023-04-24T14:26:04;3.35;;;2.30;;
61702;SDS011;47622;47.726;3.298;2023-04-24T14:28:30;2.40;;;2.20;;
61702;SDS011;47622;47.726;3.298;2023-04-24T14:30:56;6.07;;;2.50;;
61702;SDS011;47622;47.726;3.298;2023-04-24T14:33:22;5.78;;;2.17;;
61702;SDS011;47622;47.726;3.298;2023-04-24T14:35:47;3.25;;;1.83;;
61702;SDS011;47622;47.726;3.298;2023-04-24T14:38:13;4.07;;;2.03;;
61702;SDS011;47622;47.726;3.298;2023-04-24T14:40:39;3.22;;;1.80;;
61702;SDS011;47622;47.726;3.298;2023-04-24T14:43:06;5.50;;;1.85;;
61702;SDS011;47622;47.726;3.298;2023-04-24T14:45:32;5.82;;;1.83;;
61702;SDS011;47622;47.726;3.298;2023-04-24T14:47:57;3.42;;;1.90;;
61702;SDS011;47622;47.726;3.298;2023-04-24T14:50:23;3.00;;;1.95;;
61702;SDS011;47622;47.726;3.298;2023-04-24T14:52:53;3.42;;;2.00;;
61702;SDS011;47622;47.726;3.298;2023-04-24T14:55:19;3.67;;;2.03;;
61702;SDS011;47622;47.726;3.298;2023-04-24T14:57:45;4.88;;;2.20;;
61702;SDS011;47622;47.726;3.298;2023-04-24T15:00:11;4.25;;;1.90;;
61702;SDS011;47622;47.726;3.298;2023-04-24T15:02:38;6.72;;;2.47;;
61702;SDS011;47622;47.726;3.298;2023-04-24T15:05:06;7.20;;;2.53;;
61702;SDS011;47622;47.726;3.298;2023-04-24T15:07:33;5.40;;;1.90;;
61702;SDS011;47622;47.726;3.298;2023-04-24T15:10:00;5.78;;;1.98;;
61702;SDS011;47622;47.726;3.298;2023-04-24T15:12:26;7.75;;;2.55;;